sensor_id;sensor_type;location;lat;lon;timestamp;P1;durP1;ratioP1;P2;durP2;ratioP2
59938;SDS011;45801;51.810;19.444;2023-07-08T00:01:18;9.30;;;4.50;;
59938;SDS011;45801;51.810;19.444;2023-07-08T00:03:46;9.70;;;4.40;;
59938;SDS011;45801;51.810;19.444;2023-07-08T00:06:25;8.10;;;4.40;;
59938;SDS011;45801;51.810;19.444;2023-07-08T00:08:53;8.60;;;4.30;;
59938;SDS011;45801;51.810;19.444;2023-07-08T00:11:19;8.20;;;4.20;;
59938;SDS011;45801;51.810;19.444;2023-07-08T00:13:46;7.00;;;4.00;;
59938;SDS011;45801;51.810;19.444;2023-07-08T00:16:13;8.50;;;4.50;;
59938;SDS011;45801;51.810;19.444;2023-07-08T00:18:43;8.70;;;4.20;;
59938;SDS011;45801;51.810;19.444;2023-07-08T00:21:10;8.30;;;4.20;;
59938;SDS011;45801;51.810;19.444;2023-07-08T00:23:44;8.90;;;4.30;;
59938;SDS011;45801;51.810;19.444;2023-07-08T00:26:21;8.90;;;4.20;;
59938;SDS011;45801;51.810;19.444;2023-07-08T00:28:51;9.90;;;4.40;;
59938;SDS011;45801;51.810;19.444;2023-07-08T00:31:18;7.90;;;4.10;;
59938;SDS011;45801;51.810;19.444;2023-07-08T00:33:50;7.60;;;4.10;;
59938;SDS011;45801;51.810;19.444;2023-07-08T00:36:17;9.90;;;4.80;;
59938;SDS011;45801;51.810;19.444;2023-07-08T00:38:44;9.10;;;4.20;;
59938;SDS011;45801;51.810;19.444;2023-07-08T00:44:07;8.90;;;4.40;;
59938;SDS011;45801;51.810;19.444;2023-07-08T00:46:40;8.30;;;4.50;;
59938;SDS011;45801;51.810;19.444;2023-07-08T00:49:24;8.30;;;4.50;;
59938;SDS011;45801;51.810;19.444;2023-07-08T00:52:14;7.60;;;4.30;;
59938;SDS011;45801;51.810;19.444;2023-07-08T00:54:50;10.00;;;4.70;;
59938;SDS011;45801;51.810;19.444;2023-07-08T00:57:18;10.20;;;5.70;;
59938;SDS011;45801;51.810;19.444;2023-07-08T00:59:52;10.00;;;5.10;;
59938;SDS011;45801;51.810;19.444;2023-07-08T01:02:23;10.50;;;6.10;;
59938;SDS011;45801;51.810;19.444;2023-07-08T01:04:52;10.50;;;5.80;;
59938;SDS011;45801;51.810;19.444;2023-07-08T01:07:25;10.30;;;6.00;;
59938;SDS011;45801;51.810;19.444;2023-07-08T01:09:55;11.70;;;6.20;;
59938;SDS011;45801;51.810;19.444;2023-07-08T01:12:29;12.30;;;6.20;;
59938;SDS011;45801;51.810;19.444;2023-07-08T01:14:59;10.80;;;6.10;;
59938;SDS011;45801;51.810;19.444;2023-07-08T01:17:29;11.20;;;6.40;;
59938;SDS011;45801;51.810;19.444;2023-07-08T01:19:59;11.80;;;5.60;;
59938;SDS011;45801;51.810;19.444;2023-07-08T01:22:26;10.70;;;6.70;;
59938;SDS011;45801;51.810;19.444;2023-07-08T01:24:58;10.60;;;6.50;;
59938;SDS011;45801;51.810;19.444;2023-07-08T01:27:29;11.40;;;6.70;;
59938;SDS011;45801;51.810;19.444;2023-07-08T01:29:59;9.70;;;6.10;;
59938;SDS011;45801;51.810;19.444;2023-07-08T01:32:27;11.30;;;6.00;;
59938;SDS011;45801;51.810;19.444;2023-07-08T01:34:56;11.10;;;5.50;;
59938;SDS011;45801;51.810;19.444;2023-07-08T01:37:48;10.90;;;5.80;;
59938;SDS011;45801;51.810;19.444;2023-07-08T01:42:45;10.20;;;5.40;;
59938;SDS011;45801;51.810;19.444;2023-07-08T01:45:12;11.00;;;5.60;;
59938;SDS011;45801;51.810;19.444;2023-07-08T01:47:41;8.80;;;4.90;;
59938;SDS011;45801;51.810;19.444;2023-07-08T01:50:11;10.10;;;5.00;;
59938;SDS011;45801;51.810;19.444;2023-07-08T01:52:38;9.70;;;4.60;;
59938;SDS011;45801;51.810;19.444;2023-07-08T01:55:05;9.60;;;5.00;;
59938;SDS011;45801;51.810;19.444;2023-07-08T01:57:32;9.40;;;4.60;;
59938;SDS011;45801;51.810;19.444;2023-07-08T01:59:58;9.40;;;5.20;;
59938;SDS011;45801;51.810;19.444;2023-07-08T02:02:25;10.50;;;4.50;;
59938;SDS011;45801;51.810;19.444;2023-07-08T02:04:52;10.30;;;5.00;;
59938;SDS011;45801;51.810;19.444;2023-07-08T02:07:18;9.90;;;5.00;;
59938;SDS011;45801;51.810;19.444;2023-07-08T02:09:44;8.50;;;4.20;;
59938;SDS011;45801;51.810;19.444;2023-07-08T02:12:11;8.30;;;4.10;;
59938;SDS011;45801;51.810;19.444;2023-07-08T02:14:38;10.10;;;4.50;;
59938;SDS011;45801;51.810;19.444;2023-07-08T02:17:06;8.60;;;4.40;;
59938;SDS011;45801;51.810;19.444;2023-07-08T02:19:32;7.60;;;4.20;;
59938;SDS011;45801;51.810;19.444;2023-07-08T02:21:59;8.40;;;4.50;;
59938;SDS011;45801;51.810;19.444;2023-07-08T02:24:26;8.80;;;4.10;;
59938;SDS011;45801;51.810;19.444;2023-07-08T02:26:53;9.20;;;4.70;;
59938;SDS011;45801;51.810;19.444;2023-07-08T02:29:19;8.80;;;3.90;;
59938;SDS011;45801;51.810;19.444;2023-07-08T02:31:46;8.40;;;4.00;;
59938;SDS011;45801;51.810;19.444;2023-07-08T02:34:13;8.00;;;4.00;;
59938;SDS011;45801;51.810;19.444;2023-07-08T02:36:40;8.40;;;4.20;;
59938;SDS011;45801;51.810;19.444;2023-07-08T02:39:06;10.00;;;4.20;;
59938;SDS011;45801;51.810;19.444;2023-07-08T02:41:33;7.90;;;4.20;;
59938;SDS011;45801;51.810;19.444;2023-07-08T02:43:59;8.20;;;4.10;;
59938;SDS011;45801;51.810;19.444;2023-07-08T02:46:26;9.30;;;4.10;;
59938;SDS011;45801;51.810;19.444;2023-07-08T02:48:53;8.40;;;3.90;;
59938;SDS011;45801;51.810;19.444;2023-07-08T02:51:19;11.90;;;4.30;;
59938;SDS011;45801;51.810;19.444;2023-07-08T02:53:47;9.30;;;4.30;;
59938;SDS011;45801;51.810;19.444;2023-07-08T02:56:15;8.10;;;4.00;;
59938;SDS011;45801;51.810;19.444;2023-07-08T02:58:42;8.90;;;4.20;;
59938;SDS011;45801;51.810;19.444;2023-07-08T03:01:08;7.90;;;4.30;;
59938;SDS011;45801;51.810;19.444;2023-07-08T03:03:35;9.00;;;4.20;;
59938;SDS011;45801;51.810;19.444;2023-07-08T03:06:03;10.50;;;4.30;;
59938;SDS011;45801;51.810;19.444;2023-07-08T03:08:31;9.40;;;4.70;;
59938;SDS011;45801;51.810;19.444;2023-07-08T03:10:59;9.40;;;4.10;;
59938;SDS011;45801;51.810;19.444;2023-07-08T03:13:27;8.10;;;4.10;;
59938;SDS011;45801;51.810;19.444;2023-07-08T03:15:55;8.60;;;4.30;;
59938;SDS011;45801;51.810;19.444;2023-07-08T03:18:23;8.60;;;4.10;;
59938;SDS011;45801;51.810;19.444;2023-07-08T03:20:50;8.30;;;4.40;;
59938;SDS011;45801;51.810;19.444;2023-07-08T03:23:17;7.70;;;4.10;;
59938;SDS011;45801;51.810;19.444;2023-07-08T03:25:43;10.30;;;4.00;;
59938;SDS011;45801;51.810;19.444;2023-07-08T03:28:10;8.00;;;4.10;;
59938;SDS011;45801;51.810;19.444;2023-07-08T03:30:41;9.00;;;4.10;;
59938;SDS011;45801;51.810;19.444;2023-07-08T03:33:09;10.80;;;4.80;;
59938;SDS011;45801;51.810;19.444;2023-07-08T03:35:36;8.20;;;4.00;;
59938;SDS011;45801;51.810;19.444;2023-07-08T03:38:04;8.50;;;4.20;;
59938;SDS011;45801;51.810;19.444;2023-07-08T03:40:31;10.50;;;5.00;;
59938;SDS011;45801;51.810;19.444;2023-07-08T03:42:58;9.10;;;4.40;;
59938;SDS011;45801;51.810;19.444;2023-07-08T03:45:25;9.50;;;4.00;;
59938;SDS011;45801;51.810;19.444;2023-07-08T03:47:52;9.80;;;4.30;;
59938;SDS011;45801;51.810;19.444;2023-07-08T03:50:20;9.80;;;4.50;;
59938;SDS011;45801;51.810;19.444;2023-07-08T03:52:49;9.60;;;4.60;;
59938;SDS011;45801;51.810;19.444;2023-07-08T03:55:19;8.00;;;4.20;;
59938;SDS011;45801;51.810;19.444;2023-07-08T03:57:47;9.60;;;4.70;;
59938;SDS011;45801;51.810;19.444;2023-07-08T04:00:13;10.00;;;4.50;;
59938;SDS011;45801;51.810;19.444;2023-07-08T04:02:41;9.30;;;4.40;;
59938;SDS011;45801;51.810;19.444;2023-07-08T04:05:18;8.70;;;4.40;;
59938;SDS011;45801;51.810;19.444;2023-07-08T04:07:47;8.80;;;4.30;;
59938;SDS011;45801;51.810;19.444;2023-07-08T04:10:14;9.20;;;4.10;;
59938;SDS011;45801;51.810;19.444;2023-07-08T04:12:43;8.20;;;4.30;;
59938;SDS011;45801;51.810;19.444;2023-07-08T04:15:10;9.00;;;4.20;;
59938;SDS011;45801;51.810;19.444;2023-07-08T04:17:41;9.10;;;4.50;;
59938;SDS011;45801;51.810;19.444;2023-07-08T04:20:12;10.80;;;4.90;;
59938;SDS011;45801;51.810;19.444;2023-07-08T04:22:41;8.60;;;4.30;;
59938;SDS011;45801;51.810;19.444;2023-07-08T04:25:07;11.30;;;5.10;;
59938;SDS011;45801;51.810;19.444;2023-07-08T04:27:34;10.60;;;4.70;;
59938;SDS011;45801;51.810;19.444;2023-07-08T04:30:00;11.40;;;5.10;;
59938;SDS011;45801;51.810;19.444;2023-07-08T04:32:27;9.30;;;4.30;;
59938;SDS011;45801;51.810;19.444;2023-07-08T04:34:54;9.60;;;5.00;;
59938;SDS011;45801;51.810;19.444;2023-07-08T04:37:20;11.10;;;5.10;;
59938;SDS011;45801;51.810;19.444;2023-07-08T04:39:47;11.70;;;6.50;;
59938;SDS011;45801;51.810;19.444;2023-07-08T04:42:14;13.50;;;5.80;;
59938;SDS011;45801;51.810;19.444;2023-07-08T04:44:43;10.00;;;5.20;;
59938;SDS011;45801;51.810;19.444;2023-07-08T04:47:10;11.50;;;5.70;;
59938;SDS011;45801;51.810;19.444;2023-07-08T04:49:38;10.00;;;5.80;;
59938;SDS011;45801;51.810;19.444;2023-07-08T04:52:09;11.00;;;5.60;;
59938;SDS011;45801;51.810;19.444;2023-07-08T04:54:36;11.10;;;5.60;;
59938;SDS011;45801;51.810;19.444;2023-07-08T04:57:02;13.20;;;6.00;;
59938;SDS011;45801;51.810;19.444;2023-07-08T04:59:29;9.60;;;5.10;;
59938;SDS011;45801;51.810;19.444;2023-07-08T05:02:00;13.90;;;5.80;;
59938;SDS011;45801;51.810;19.444;2023-07-08T05:04:27;12.20;;;5.60;;
59938;SDS011;45801;51.810;19.444;2023-07-08T05:06:54;10.60;;;5.20;;
59938;SDS011;45801;51.810;19.444;2023-07-08T05:09:20;10.00;;;4.90;;
59938;SDS011;45801;51.810;19.444;2023-07-08T05:11:49;10.10;;;5.00;;
59938;SDS011;45801;51.810;19.444;2023-07-08T05:14:16;11.80;;;5.40;;
59938;SDS011;45801;51.810;19.444;2023-07-08T05:16:42;9.90;;;4.90;;
59938;SDS011;45801;51.810;19.444;2023-07-08T05:19:09;10.20;;;4.90;;
59938;SDS011;45801;51.810;19.444;2023-07-08T05:21:36;11.10;;;5.40;;
59938;SDS011;45801;51.810;19.444;2023-07-08T05:24:04;12.40;;;4.80;;
59938;SDS011;45801;51.810;19.444;2023-07-08T05:26:32;9.20;;;4.30;;
59938;SDS011;45801;51.810;19.444;2023-07-08T05:28:59;10.10;;;5.10;;
59938;SDS011;45801;51.810;19.444;2023-07-08T05:31:26;9.90;;;4.30;;
59938;SDS011;45801;51.810;19.444;2023-07-08T05:33:53;9.80;;;3.80;;
59938;SDS011;45801;51.810;19.444;2023-07-08T05:36:20;8.30;;;4.10;;
59938;SDS011;45801;51.810;19.444;2023-07-08T05:38:46;9.50;;;3.80;;
59938;SDS011;45801;51.810;19.444;2023-07-08T05:41:14;8.90;;;3.60;;
59938;SDS011;45801;51.810;19.444;2023-07-08T05:43:41;8.20;;;3.70;;
59938;SDS011;45801;51.810;19.444;2023-07-08T05:46:07;11.40;;;3.90;;
59938;SDS011;45801;51.810;19.444;2023-07-08T05:48:34;8.30;;;3.60;;
59938;SDS011;45801;51.810;19.444;2023-07-08T05:51:00;9.30;;;3.40;;
59938;SDS011;45801;51.810;19.444;2023-07-08T05:53:26;6.80;;;3.20;;
59938;SDS011;45801;51.810;19.444;2023-07-08T05:55:53;8.50;;;3.30;;
59938;SDS011;45801;51.810;19.444;2023-07-08T05:58:20;7.60;;;3.10;;
59938;SDS011;45801;51.810;19.444;2023-07-08T06:00:46;7.50;;;3.20;;
59938;SDS011;45801;51.810;19.444;2023-07-08T06:03:13;8.90;;;3.30;;
59938;SDS011;45801;51.810;19.444;2023-07-08T06:05:39;6.70;;;2.40;;
59938;SDS011;45801;51.810;19.444;2023-07-08T06:08:06;8.40;;;2.90;;
59938;SDS011;45801;51.810;19.444;2023-07-08T06:10:34;6.70;;;2.70;;
59938;SDS011;45801;51.810;19.444;2023-07-08T06:13:01;6.80;;;2.60;;
59938;SDS011;45801;51.810;19.444;2023-07-08T06:15:27;7.10;;;2.80;;
59938;SDS011;45801;51.810;19.444;2023-07-08T06:17:54;6.10;;;2.20;;
59938;SDS011;45801;51.810;19.444;2023-07-08T06:20:21;8.60;;;2.50;;
59938;SDS011;45801;51.810;19.444;2023-07-08T06:22:47;6.40;;;2.40;;
59938;SDS011;45801;51.810;19.444;2023-07-08T06:25:13;6.40;;;2.60;;
59938;SDS011;45801;51.810;19.444;2023-07-08T06:27:40;5.90;;;2.20;;
59938;SDS011;45801;51.810;19.444;2023-07-08T06:30:07;6.30;;;2.40;;
59938;SDS011;45801;51.810;19.444;2023-07-08T06:32:34;6.70;;;2.00;;
59938;SDS011;45801;51.810;19.444;2023-07-08T06:35:01;6.50;;;2.50;;
59938;SDS011;45801;51.810;19.444;2023-07-08T06:37:27;5.40;;;2.20;;
59938;SDS011;45801;51.810;19.444;2023-07-08T06:39:54;6.90;;;2.10;;
59938;SDS011;45801;51.810;19.444;2023-07-08T06:42:20;6.20;;;2.30;;
59938;SDS011;45801;51.810;19.444;2023-07-08T06:44:46;5.50;;;2.60;;
59938;SDS011;45801;51.810;19.444;2023-07-08T06:47:20;6.60;;;2.60;;
59938;SDS011;45801;51.810;19.444;2023-07-08T06:49:48;5.60;;;2.00;;
59938;SDS011;45801;51.810;19.444;2023-07-08T06:52:14;6.20;;;2.10;;
59938;SDS011;45801;51.810;19.444;2023-07-08T06:54:41;5.70;;;2.20;;
59938;SDS011;45801;51.810;19.444;2023-07-08T06:57:07;5.50;;;2.10;;
59938;SDS011;45801;51.810;19.444;2023-07-08T06:59:34;4.00;;;1.70;;
59938;SDS011;45801;51.810;19.444;2023-07-08T07:02:00;5.90;;;2.00;;
59938;SDS011;45801;51.810;19.444;2023-07-08T07:04:27;6.70;;;2.00;;
59938;SDS011;45801;51.810;19.444;2023-07-08T07:06:54;5.20;;;1.80;;
59938;SDS011;45801;51.810;19.444;2023-07-08T07:09:21;5.00;;;1.90;;
59938;SDS011;45801;51.810;19.444;2023-07-08T07:11:47;7.30;;;1.80;;
59938;SDS011;45801;51.810;19.444;2023-07-08T07:14:14;4.30;;;1.80;;
59938;SDS011;45801;51.810;19.444;2023-07-08T07:16:40;4.50;;;1.90;;
59938;SDS011;45801;51.810;19.444;2023-07-08T07:19:08;7.30;;;2.10;;
59938;SDS011;45801;51.810;19.444;2023-07-08T07:21:35;6.00;;;2.20;;
59938;SDS011;45801;51.810;19.444;2023-07-08T07:24:01;5.60;;;2.30;;
59938;SDS011;45801;51.810;19.444;2023-07-08T07:26:28;5.70;;;1.80;;
59938;SDS011;45801;51.810;19.444;2023-07-08T07:28:54;4.50;;;1.80;;
59938;SDS011;45801;51.810;19.444;2023-07-08T07:31:21;4.90;;;2.00;;
59938;SDS011;45801;51.810;19.444;2023-07-08T07:33:47;4.40;;;1.90;;
59938;SDS011;45801;51.810;19.444;2023-07-08T07:36:14;5.70;;;2.00;;
59938;SDS011;45801;51.810;19.444;2023-07-08T07:38:41;4.90;;;2.00;;
59938;SDS011;45801;51.810;19.444;2023-07-08T07:41:07;5.30;;;2.00;;
59938;SDS011;45801;51.810;19.444;2023-07-08T07:43:37;6.30;;;1.80;;
59938;SDS011;45801;51.810;19.444;2023-07-08T07:46:03;5.40;;;2.10;;
59938;SDS011;45801;51.810;19.444;2023-07-08T07:48:31;5.80;;;2.10;;
59938;SDS011;45801;51.810;19.444;2023-07-08T07:50:58;5.90;;;2.10;;
59938;SDS011;45801;51.810;19.444;2023-07-08T07:56:11;6.00;;;1.80;;
59938;SDS011;45801;51.810;19.444;2023-07-08T07:58:38;6.00;;;2.00;;
59938;SDS011;45801;51.810;19.444;2023-07-08T08:01:04;4.40;;;1.90;;
59938;SDS011;45801;51.810;19.444;2023-07-08T08:03:32;5.10;;;1.70;;
59938;SDS011;45801;51.810;19.444;2023-07-08T08:05:59;5.30;;;1.90;;
59938;SDS011;45801;51.810;19.444;2023-07-08T08:08:26;4.60;;;1.90;;
59938;SDS011;45801;51.810;19.444;2023-07-08T08:10:52;6.00;;;2.00;;
59938;SDS011;45801;51.810;19.444;2023-07-08T08:13:18;5.10;;;2.10;;
59938;SDS011;45801;51.810;19.444;2023-07-08T08:15:45;4.30;;;1.80;;
59938;SDS011;45801;51.810;19.444;2023-07-08T08:18:11;5.20;;;2.30;;
59938;SDS011;45801;51.810;19.444;2023-07-08T08:20:38;5.10;;;1.80;;
59938;SDS011;45801;51.810;19.444;2023-07-08T08:23:05;5.90;;;2.20;;
59938;SDS011;45801;51.810;19.444;2023-07-08T08:25:32;6.20;;;2.20;;
59938;SDS011;45801;51.810;19.444;2023-07-08T08:27:59;5.70;;;2.30;;
59938;SDS011;45801;51.810;19.444;2023-07-08T08:30:25;5.90;;;2.10;;
59938;SDS011;45801;51.810;19.444;2023-07-08T08:32:52;4.40;;;2.00;;
59938;SDS011;45801;51.810;19.444;2023-07-08T08:35:24;5.60;;;2.30;;
59938;SDS011;45801;51.810;19.444;2023-07-08T08:40:19;4.40;;;1.80;;
59938;SDS011;45801;51.810;19.444;2023-07-08T08:43:33;5.40;;;2.30;;
59938;SDS011;45801;51.810;19.444;2023-07-08T08:48:26;4.80;;;2.30;;
59938;SDS011;45801;51.810;19.444;2023-07-08T08:50:58;4.90;;;1.90;;
59938;SDS011;45801;51.810;19.444;2023-07-08T08:53:31;6.30;;;2.50;;
59938;SDS011;45801;51.810;19.444;2023-07-08T08:56:15;5.30;;;2.40;;
59938;SDS011;45801;51.810;19.444;2023-07-08T09:01:35;5.20;;;1.90;;
59938;SDS011;45801;51.810;19.444;2023-07-08T09:04:12;5.20;;;2.20;;
59938;SDS011;45801;51.810;19.444;2023-07-08T09:06:44;4.40;;;2.10;;
59938;SDS011;45801;51.810;19.444;2023-07-08T09:09:13;4.90;;;2.10;;
59938;SDS011;45801;51.810;19.444;2023-07-08T09:11:55;4.40;;;2.10;;
59938;SDS011;45801;51.810;19.444;2023-07-08T09:14:27;5.50;;;2.20;;
59938;SDS011;45801;51.810;19.444;2023-07-08T09:25:37;6.00;;;2.10;;
59938;SDS011;45801;51.810;19.444;2023-07-08T09:30:39;5.00;;;1.90;;
59938;SDS011;45801;51.810;19.444;2023-07-08T09:33:06;8.90;;;2.50;;
59938;SDS011;45801;51.810;19.444;2023-07-08T09:35:38;5.30;;;2.20;;
59938;SDS011;45801;51.810;19.444;2023-07-08T09:38:24;5.10;;;2.40;;
59938;SDS011;45801;51.810;19.444;2023-07-08T09:40:52;4.70;;;2.20;;
59938;SDS011;45801;51.810;19.444;2023-07-08T09:43:26;5.60;;;2.10;;
59938;SDS011;45801;51.810;19.444;2023-07-08T09:46:02;5.00;;;2.10;;
59938;SDS011;45801;51.810;19.444;2023-07-08T09:48:31;5.30;;;2.30;;
59938;SDS011;45801;51.810;19.444;2023-07-08T09:51:01;9.50;;;2.50;;
59938;SDS011;45801;51.810;19.444;2023-07-08T09:53:29;5.10;;;2.40;;
59938;SDS011;45801;51.810;19.444;2023-07-08T09:55:56;5.50;;;2.40;;
59938;SDS011;45801;51.810;19.444;2023-07-08T09:58:25;6.40;;;2.10;;
59938;SDS011;45801;51.810;19.444;2023-07-08T10:00:59;6.60;;;2.20;;
59938;SDS011;45801;51.810;19.444;2023-07-08T10:03:31;6.10;;;2.40;;
59938;SDS011;45801;51.810;19.444;2023-07-08T10:06:03;5.60;;;2.40;;
59938;SDS011;45801;51.810;19.444;2023-07-08T10:08:40;4.70;;;2.00;;
59938;SDS011;45801;51.810;19.444;2023-07-08T10:11:13;5.80;;;2.10;;
59938;SDS011;45801;51.810;19.444;2023-07-08T10:13:48;5.60;;;2.30;;
59938;SDS011;45801;51.810;19.444;2023-07-08T10:18:57;6.90;;;2.10;;
59938;SDS011;45801;51.810;19.444;2023-07-08T10:30:07;5.50;;;2.30;;
59938;SDS011;45801;51.810;19.444;2023-07-08T10:59:34;6.00;;;2.20;;
59938;SDS011;45801;51.810;19.444;2023-07-08T11:05:45;4.80;;;2.10;;
59938;SDS011;45801;51.810;19.444;2023-07-08T11:13:28;4.70;;;1.80;;
59938;SDS011;45801;51.810;19.444;2023-07-08T11:16:02;6.30;;;2.20;;
59938;SDS011;45801;51.810;19.444;2023-07-08T11:21:22;6.50;;;2.20;;
59938;SDS011;45801;51.810;19.444;2023-07-08T11:24:29;5.60;;;2.20;;
59938;SDS011;45801;51.810;19.444;2023-07-08T11:27:11;5.90;;;1.90;;
59938;SDS011;45801;51.810;19.444;2023-07-08T11:29:46;5.10;;;2.20;;
59938;SDS011;45801;51.810;19.444;2023-07-08T11:32:17;7.10;;;2.40;;
59938;SDS011;45801;51.810;19.444;2023-07-08T11:34:48;5.30;;;2.00;;
59938;SDS011;45801;51.810;19.444;2023-07-08T11:37:17;5.40;;;2.10;;
59938;SDS011;45801;51.810;19.444;2023-07-08T11:40:05;5.00;;;1.90;;
59938;SDS011;45801;51.810;19.444;2023-07-08T11:42:42;4.00;;;1.90;;
59938;SDS011;45801;51.810;19.444;2023-07-08T11:47:47;4.10;;;2.10;;
59938;SDS011;45801;51.810;19.444;2023-07-08T11:50:25;5.20;;;2.10;;
59938;SDS011;45801;51.810;19.444;2023-07-08T11:53:00;4.20;;;2.10;;
59938;SDS011;45801;51.810;19.444;2023-07-08T11:56:18;5.10;;;2.00;;
59938;SDS011;45801;51.810;19.444;2023-07-08T11:58:28;5.30;;;1.90;;
59938;SDS011;45801;51.810;19.444;2023-07-08T12:00:58;6.80;;;2.20;;
59938;SDS011;45801;51.810;19.444;2023-07-08T12:06:00;6.40;;;2.30;;
59938;SDS011;45801;51.810;19.444;2023-07-08T12:08:33;6.20;;;2.00;;
59938;SDS011;45801;51.810;19.444;2023-07-08T12:11:03;5.60;;;2.00;;
59938;SDS011;45801;51.810;19.444;2023-07-08T12:13:38;5.60;;;2.10;;
59938;SDS011;45801;51.810;19.444;2023-07-08T12:16:11;5.90;;;2.10;;
59938;SDS011;45801;51.810;19.444;2023-07-08T12:18:39;4.90;;;2.20;;
59938;SDS011;45801;51.810;19.444;2023-07-08T12:21:12;4.70;;;1.80;;
59938;SDS011;45801;51.810;19.444;2023-07-08T12:23:43;5.40;;;2.10;;
59938;SDS011;45801;51.810;19.444;2023-07-08T12:26:11;6.30;;;2.60;;
59938;SDS011;45801;51.810;19.444;2023-07-08T12:28:39;4.90;;;2.30;;
59938;SDS011;45801;51.810;19.444;2023-07-08T12:31:16;5.30;;;2.20;;
59938;SDS011;45801;51.810;19.444;2023-07-08T12:33:45;7.10;;;2.20;;
59938;SDS011;45801;51.810;19.444;2023-07-08T12:36:19;6.50;;;2.80;;
59938;SDS011;45801;51.810;19.444;2023-07-08T12:38:48;5.20;;;2.10;;
59938;SDS011;45801;51.810;19.444;2023-07-08T12:41:20;6.00;;;2.10;;
59938;SDS011;45801;51.810;19.444;2023-07-08T12:43:49;6.10;;;2.40;;
59938;SDS011;45801;51.810;19.444;2023-07-08T12:46:17;7.80;;;2.40;;
59938;SDS011;45801;51.810;19.444;2023-07-08T12:48:45;5.90;;;2.20;;
59938;SDS011;45801;51.810;19.444;2023-07-08T12:51:19;6.50;;;2.30;;
59938;SDS011;45801;51.810;19.444;2023-07-08T12:53:50;6.00;;;2.30;;
59938;SDS011;45801;51.810;19.444;2023-07-08T12:56:19;5.80;;;2.50;;
59938;SDS011;45801;51.810;19.444;2023-07-08T12:58:49;5.20;;;2.00;;
59938;SDS011;45801;51.810;19.444;2023-07-08T13:01:21;4.20;;;2.00;;
59938;SDS011;45801;51.810;19.444;2023-07-08T13:03:51;6.40;;;2.30;;
59938;SDS011;45801;51.810;19.444;2023-07-08T13:06:21;5.30;;;2.20;;
59938;SDS011;45801;51.810;19.444;2023-07-08T13:08:49;5.60;;;2.40;;
59938;SDS011;45801;51.810;19.444;2023-07-08T13:11:18;6.20;;;2.60;;
59938;SDS011;45801;51.810;19.444;2023-07-08T13:13:49;5.40;;;2.10;;
59938;SDS011;45801;51.810;19.444;2023-07-08T13:16:19;6.90;;;2.70;;
59938;SDS011;45801;51.810;19.444;2023-07-08T13:18:47;4.90;;;2.40;;
59938;SDS011;45801;51.810;19.444;2023-07-08T13:21:14;4.80;;;2.20;;
59938;SDS011;45801;51.810;19.444;2023-07-08T13:23:42;6.20;;;2.30;;
59938;SDS011;45801;51.810;19.444;2023-07-08T13:26:16;5.00;;;2.10;;
59938;SDS011;45801;51.810;19.444;2023-07-08T13:31:39;6.90;;;2.40;;
59938;SDS011;45801;51.810;19.444;2023-07-08T13:34:08;5.50;;;2.10;;
59938;SDS011;45801;51.810;19.444;2023-07-08T13:36:38;5.50;;;1.90;;
59938;SDS011;45801;51.810;19.444;2023-07-08T13:39:07;5.10;;;2.30;;
59938;SDS011;45801;51.810;19.444;2023-07-08T13:41:41;5.10;;;2.30;;
59938;SDS011;45801;51.810;19.444;2023-07-08T13:44:11;7.10;;;2.10;;
59938;SDS011;45801;51.810;19.444;2023-07-08T13:46:39;7.00;;;2.30;;
59938;SDS011;45801;51.810;19.444;2023-07-08T13:51:41;6.60;;;2.60;;
59938;SDS011;45801;51.810;19.444;2023-07-08T13:54:22;6.00;;;2.50;;
59938;SDS011;45801;51.810;19.444;2023-07-08T13:56:53;5.30;;;2.30;;
59938;SDS011;45801;51.810;19.444;2023-07-08T13:59:23;7.20;;;2.70;;
59938;SDS011;45801;51.810;19.444;2023-07-08T14:01:52;6.00;;;2.70;;
59938;SDS011;45801;51.810;19.444;2023-07-08T14:04:26;5.60;;;2.30;;
59938;SDS011;45801;51.810;19.444;2023-07-08T14:06:56;5.40;;;2.00;;
59938;SDS011;45801;51.810;19.444;2023-07-08T14:09:23;5.20;;;2.20;;
59938;SDS011;45801;51.810;19.444;2023-07-08T14:11:50;5.80;;;2.50;;
59938;SDS011;45801;51.810;19.444;2023-07-08T14:14:18;5.20;;;2.50;;
59938;SDS011;45801;51.810;19.444;2023-07-08T14:16:45;7.50;;;2.30;;
59938;SDS011;45801;51.810;19.444;2023-07-08T14:19:16;6.40;;;2.20;;
59938;SDS011;45801;51.810;19.444;2023-07-08T14:21:46;4.90;;;2.50;;
59938;SDS011;45801;51.810;19.444;2023-07-08T14:24:13;5.80;;;2.20;;
59938;SDS011;45801;51.810;19.444;2023-07-08T14:26:41;5.50;;;2.70;;
59938;SDS011;45801;51.810;19.444;2023-07-08T14:29:09;7.10;;;2.50;;
59938;SDS011;45801;51.810;19.444;2023-07-08T14:31:36;5.10;;;2.20;;
59938;SDS011;45801;51.810;19.444;2023-07-08T14:34:11;6.20;;;2.40;;
59938;SDS011;45801;51.810;19.444;2023-07-08T14:36:44;6.00;;;2.40;;
59938;SDS011;45801;51.810;19.444;2023-07-08T14:39:14;5.90;;;2.50;;
59938;SDS011;45801;51.810;19.444;2023-07-08T14:41:42;4.60;;;2.20;;
59938;SDS011;45801;51.810;19.444;2023-07-08T14:44:14;5.20;;;2.30;;
59938;SDS011;45801;51.810;19.444;2023-07-08T14:46:47;5.50;;;2.40;;
59938;SDS011;45801;51.810;19.444;2023-07-08T14:49:20;7.30;;;2.50;;
59938;SDS011;45801;51.810;19.444;2023-07-08T14:51:49;7.20;;;2.90;;
59938;SDS011;45801;51.810;19.444;2023-07-08T14:54:17;5.50;;;2.80;;
59938;SDS011;45801;51.810;19.444;2023-07-08T14:56:44;5.80;;;2.20;;
59938;SDS011;45801;51.810;19.444;2023-07-08T14:59:19;9.20;;;3.00;;
59938;SDS011;45801;51.810;19.444;2023-07-08T15:01:48;5.40;;;2.30;;
59938;SDS011;45801;51.810;19.444;2023-07-08T15:04:16;5.40;;;2.30;;
59938;SDS011;45801;51.810;19.444;2023-07-08T15:06:44;7.10;;;2.90;;
59938;SDS011;45801;51.810;19.444;2023-07-08T15:09:11;5.00;;;2.30;;
59938;SDS011;45801;51.810;19.444;2023-07-08T15:11:40;5.70;;;2.60;;
59938;SDS011;45801;51.810;19.444;2023-07-08T15:14:21;4.70;;;2.30;;
59938;SDS011;45801;51.810;19.444;2023-07-08T15:16:49;7.20;;;2.70;;
59938;SDS011;45801;51.810;19.444;2023-07-08T15:19:17;6.50;;;2.40;;
59938;SDS011;45801;51.810;19.444;2023-07-08T15:21:44;5.80;;;2.60;;
59938;SDS011;45801;51.810;19.444;2023-07-08T15:24:12;4.00;;;2.00;;
59938;SDS011;45801;51.810;19.444;2023-07-08T15:26:40;5.90;;;2.60;;
59938;SDS011;45801;51.810;19.444;2023-07-08T15:29:12;5.90;;;2.70;;
59938;SDS011;45801;51.810;19.444;2023-07-08T15:34:11;5.90;;;2.50;;
59938;SDS011;45801;51.810;19.444;2023-07-08T15:36:39;5.30;;;2.40;;
59938;SDS011;45801;51.810;19.444;2023-07-08T15:39:06;5.90;;;2.60;;
59938;SDS011;45801;51.810;19.444;2023-07-08T15:41:33;6.20;;;3.00;;
59938;SDS011;45801;51.810;19.444;2023-07-08T15:44:00;5.80;;;2.40;;
59938;SDS011;45801;51.810;19.444;2023-07-08T15:46:29;6.50;;;2.80;;
59938;SDS011;45801;51.810;19.444;2023-07-08T15:49:00;8.00;;;2.90;;
59938;SDS011;45801;51.810;19.444;2023-07-08T15:51:26;6.10;;;2.50;;
59938;SDS011;45801;51.810;19.444;2023-07-08T15:53:55;5.90;;;2.60;;
59938;SDS011;45801;51.810;19.444;2023-07-08T15:56:22;6.70;;;3.10;;
59938;SDS011;45801;51.810;19.444;2023-07-08T15:58:49;6.30;;;2.70;;
59938;SDS011;45801;51.810;19.444;2023-07-08T16:01:19;7.10;;;2.90;;
59938;SDS011;45801;51.810;19.444;2023-07-08T16:03:49;6.90;;;2.90;;
59938;SDS011;45801;51.810;19.444;2023-07-08T16:06:16;5.70;;;3.00;;
59938;SDS011;45801;51.810;19.444;2023-07-08T16:08:43;6.00;;;2.70;;
59938;SDS011;45801;51.810;19.444;2023-07-08T16:11:12;6.50;;;2.50;;
59938;SDS011;45801;51.810;19.444;2023-07-08T16:13:42;7.30;;;2.80;;
59938;SDS011;45801;51.810;19.444;2023-07-08T16:16:11;5.70;;;2.50;;